sensor_id;sensor_type;location;lat;lon;timestamp;temperature;humidity
42683;DHT22;28293;50.930;3.464;2023-07-20T00:00:45;17.20;84.70
42683;DHT22;28293;50.930;3.464;2023-07-20T00:03:13;17.20;84.70
42683;DHT22;28293;50.930;3.464;2023-07-20T00:05:45;17.20;84.80
42683;DHT22;28293;50.930;3.464;2023-07-20T00:08:11;17.10;85.00
42683;DHT22;28293;50.930;3.464;2023-07-20T00:10:37;17.10;85.20
42683;DHT22;28293;50.930;3.464;2023-07-20T00:13:02;17.10;85.30
42683;DHT22;28293;50.930;3.464;2023-07-20T00:15:28;17.00;85.60
42683;DHT22;28293;50.930;3.464;2023-07-20T00:17:54;16.90;86.00
42683;DHT22;28293;50.930;3.464;2023-07-20T00:20:19;16.90;86.30
42683;DHT22;28293;50.930;3.464;2023-07-20T00:22:45;16.90;86.40
42683;DHT22;28293;50.930;3.464;2023-07-20T00:25:11;16.90;86.40
42683;DHT22;28293;50.930;3.464;2023-07-20T00:27:37;16.90;86.40
42683;DHT22;28293;50.930;3.464;2023-07-20T00:30:04;16.90;86.40
42683;DHT22;28293;50.930;3.464;2023-07-20T00:32:30;16.80;86.70
42683;DHT22;28293;50.930;3.464;2023-07-20T00:34:56;16.80;86.80
42683;DHT22;28293;50.930;3.464;2023-07-20T00:37:21;16.80;87.00
42683;DHT22;28293;50.930;3.464;2023-07-20T00:39:47;16.80;86.90
42683;DHT22;28293;50.930;3.464;2023-07-20T00:42:13;16.80;86.90
42683;DHT22;28293;50.930;3.464;2023-07-20T00:44:38;16.80;86.90
42683;DHT22;28293;50.930;3.464;2023-07-20T00:47:05;16.80;86.90
42683;DHT22;28293;50.930;3.464;2023-07-20T00:49:31;16.80;86.90
42683;DHT22;28293;50.930;3.464;2023-07-20T00:51:58;16.80;87.00
42683;DHT22;28293;50.930;3.464;2023-07-20T00:54:25;16.80;87.00
42683;DHT22;28293;50.930;3.464;2023-07-20T00:56:52;16.80;87.00
42683;DHT22;28293;50.930;3.464;2023-07-20T00:59:18;16.80;87.00
42683;DHT22;28293;50.930;3.464;2023-07-20T01:01:44;16.90;87.00
42683;DHT22;28293;50.930;3.464;2023-07-20T01:04:10;16.90;87.00
42683;DHT22;28293;50.930;3.464;2023-07-20T01:14:16;16.90;86.50
42683;DHT22;28293;50.930;3.464;2023-07-20T01:16:42;16.80;86.60
42683;DHT22;28293;50.930;3.464;2023-07-20T01:19:07;16.80;86.80
42683;DHT22;28293;50.930;3.464;2023-07-20T01:21:43;16.80;86.80
42683;DHT22;28293;50.930;3.464;2023-07-20T01:24:39;16.80;86.90
42683;DHT22;28293;50.930;3.464;2023-07-20T01:32:31;16.50;87.20
42683;DHT22;28293;50.930;3.464;2023-07-20T01:34:58;16.50;87.40
42683;DHT22;28293;50.930;3.464;2023-07-20T01:37:25;16.50;87.30
42683;DHT22;28293;50.930;3.464;2023-07-20T01:39:55;16.50;87.40
42683;DHT22;28293;50.930;3.464;2023-07-20T01:42:24;16.40;87.50
42683;DHT22;28293;50.930;3.464;2023-07-20T01:44:53;16.40;87.50
42683;DHT22;28293;50.930;3.464;2023-07-20T01:47:19;16.40;87.60
42683;DHT22;28293;50.930;3.464;2023-07-20T01:49:45;16.30;87.80
42683;DHT22;28293;50.930;3.464;2023-07-20T01:52:11;16.30;87.80
42683;DHT22;28293;50.930;3.464;2023-07-20T01:54:36;16.20;87.80
42683;DHT22;28293;50.930;3.464;2023-07-20T01:57:02;16.30;87.80
42683;DHT22;28293;50.930;3.464;2023-07-20T01:59:28;16.20;87.80
42683;DHT22;28293;50.930;3.464;2023-07-20T02:01:54;16.20;87.70
42683;DHT22;28293;50.930;3.464;2023-07-20T02:04:20;16.20;87.80
42683;DHT22;28293;50.930;3.464;2023-07-20T02:06:45;16.20;87.80
42683;DHT22;28293;50.930;3.464;2023-07-20T02:09:11;16.20;87.70
42683;DHT22;28293;50.930;3.464;2023-07-20T02:11:37;16.30;87.70
42683;DHT22;28293;50.930;3.464;2023-07-20T02:14:02;16.30;87.60
42683;DHT22;28293;50.930;3.464;2023-07-20T02:16:28;16.30;87.60
42683;DHT22;28293;50.930;3.464;2023-07-20T02:18:54;16.30;87.70
42683;DHT22;28293;50.930;3.464;2023-07-20T02:21:22;16.40;87.70
42683;DHT22;28293;50.930;3.464;2023-07-20T02:23:48;16.40;87.60
42683;DHT22;28293;50.930;3.464;2023-07-20T02:26:14;16.40;87.70
42683;DHT22;28293;50.930;3.464;2023-07-20T02:28:40;16.40;87.80
42683;DHT22;28293;50.930;3.464;2023-07-20T02:31:06;16.40;87.80
42683;DHT22;28293;50.930;3.464;2023-07-20T02:33:32;16.40;87.70
42683;DHT22;28293;50.930;3.464;2023-07-20T02:35:58;16.50;87.80
42683;DHT22;28293;50.930;3.464;2023-07-20T02:38:23;16.50;87.80
42683;DHT22;28293;50.930;3.464;2023-07-20T02:40:50;16.50;87.80
42683;DHT22;28293;50.930;3.464;2023-07-20T02:43:16;16.50;87.80
42683;DHT22;28293;50.930;3.464;2023-07-20T02:45:41;16.50;87.70
42683;DHT22;28293;50.930;3.464;2023-07-20T02:48:08;16.60;87.70
42683;DHT22;28293;50.930;3.464;2023-07-20T02:50:34;16.50;87.70
42683;DHT22;28293;50.930;3.464;2023-07-20T02:53:00;16.50;87.50
42683;DHT22;28293;50.930;3.464;2023-07-20T02:55:26;16.60;87.50
42683;DHT22;28293;50.930;3.464;2023-07-20T02:57:52;16.60;87.50
42683;DHT22;28293;50.930;3.464;2023-07-20T03:00:17;16.60;87.30
42683;DHT22;28293;50.930;3.464;2023-07-20T03:02:45;16.50;87.40
42683;DHT22;28293;50.930;3.464;2023-07-20T03:05:13;16.50;87.40
42683;DHT22;28293;50.930;3.464;2023-07-20T03:07:39;16.50;87.40
42683;DHT22;28293;50.930;3.464;2023-07-20T03:10:05;16.50;87.40
42683;DHT22;28293;50.930;3.464;2023-07-20T03:12:34;16.60;87.40
42683;DHT22;28293;50.930;3.464;2023-07-20T03:15:03;16.50;87.20
42683;DHT22;28293;50.930;3.464;2023-07-20T03:17:29;16.50;87.30
42683;DHT22;28293;50.930;3.464;2023-07-20T03:19:55;16.50;87.40
42683;DHT22;28293;50.930;3.464;2023-07-20T03:22:20;16.40;87.60
42683;DHT22;28293;50.930;3.464;2023-07-20T03:24:47;16.40;87.60
42683;DHT22;28293;50.930;3.464;2023-07-20T03:27:13;16.50;87.50
42683;DHT22;28293;50.930;3.464;2023-07-20T03:29:39;16.50;87.60
42683;DHT22;28293;50.930;3.464;2023-07-20T03:32:05;16.50;87.70
42683;DHT22;28293;50.930;3.464;2023-07-20T03:34:31;16.50;87.60
42683;DHT22;28293;50.930;3.464;2023-07-20T03:36:57;16.40;87.60
42683;DHT22;28293;50.930;3.464;2023-07-20T03:39:23;16.50;87.60
42683;DHT22;28293;50.930;3.464;2023-07-20T03:41:48;16.50;87.80
42683;DHT22;28293;50.930;3.464;2023-07-20T03:44:14;16.50;87.90
42683;DHT22;28293;50.930;3.464;2023-07-20T03:46:39;16.50;88.00
42683;DHT22;28293;50.930;3.464;2023-07-20T03:49:05;16.50;87.90
42683;DHT22;28293;50.930;3.464;2023-07-20T03:51:32;16.50;87.90
42683;DHT22;28293;50.930;3.464;2023-07-20T03:53:57;16.50;87.90
42683;DHT22;28293;50.930;3.464;2023-07-20T03:56:23;16.50;88.10
42683;DHT22;28293;50.930;3.464;2023-07-20T03:58:50;16.50;88.10
42683;DHT22;28293;50.930;3.464;2023-07-20T04:01:15;16.50;88.20
42683;DHT22;28293;50.930;3.464;2023-07-20T04:03:42;16.50;88.30
42683;DHT22;28293;50.930;3.464;2023-07-20T04:06:08;16.50;88.20
42683;DHT22;28293;50.930;3.464;2023-07-20T04:08:35;16.50;88.40
42683;DHT22;28293;50.930;3.464;2023-07-20T04:11:03;16.60;88.20
42683;DHT22;28293;50.930;3.464;2023-07-20T04:13:29;16.50;88.20
42683;DHT22;28293;50.930;3.464;2023-07-20T04:15:59;16.60;88.20
42683;DHT22;28293;50.930;3.464;2023-07-20T04:18:25;16.60;88.40
42683;DHT22;28293;50.930;3.464;2023-07-20T04:20:51;16.60;88.30
42683;DHT22;28293;50.930;3.464;2023-07-20T04:23:17;16.60;88.30
42683;DHT22;28293;50.930;3.464;2023-07-20T04:25:43;16.60;88.20
42683;DHT22;28293;50.930;3.464;2023-07-20T04:28:09;16.60;88.20
42683;DHT22;28293;50.930;3.464;2023-07-20T04:30:38;16.60;88.30
42683;DHT22;28293;50.930;3.464;2023-07-20T04:33:05;16.70;88.30
42683;DHT22;28293;50.930;3.464;2023-07-20T04:35:51;16.70;88.30
42683;DHT22;28293;50.930;3.464;2023-07-20T04:38:17;16.70;88.30
42683;DHT22;28293;50.930;3.464;2023-07-20T04:40:44;16.70;88.30
42683;DHT22;28293;50.930;3.464;2023-07-20T04:43:10;16.60;88.10
42683;DHT22;28293;50.930;3.464;2023-07-20T04:45:36;16.60;88.20
42683;DHT22;28293;50.930;3.464;2023-07-20T04:48:01;16.70;88.00
42683;DHT22;28293;50.930;3.464;2023-07-20T04:50:27;16.70;87.90
42683;DHT22;28293;50.930;3.464;2023-07-20T04:52:53;16.70;87.80
42683;DHT22;28293;50.930;3.464;2023-07-20T04:55:19;16.70;87.80
42683;DHT22;28293;50.930;3.464;2023-07-20T04:57:45;16.80;87.80
42683;DHT22;28293;50.930;3.464;2023-07-20T05:00:11;16.70;87.50
42683;DHT22;28293;50.930;3.464;2023-07-20T05:02:38;16.70;87.70
42683;DHT22;28293;50.930;3.464;2023-07-20T05:05:04;16.80;87.80
42683;DHT22;28293;50.930;3.464;2023-07-20T05:07:31;16.70;87.60
42683;DHT22;28293;50.930;3.464;2023-07-20T05:09:57;16.80;87.80
42683;DHT22;28293;50.930;3.464;2023-07-20T05:12:23;16.80;87.70
42683;DHT22;28293;50.930;3.464;2023-07-20T05:14:49;16.90;87.80
42683;DHT22;28293;50.930;3.464;2023-07-20T05:17:14;17.00;87.70
42683;DHT22;28293;50.930;3.464;2023-07-20T05:19:40;17.00;87.40
42683;DHT22;28293;50.930;3.464;2023-07-20T05:22:06;17.10;87.10
42683;DHT22;28293;50.930;3.464;2023-07-20T05:24:31;17.10;86.90
42683;DHT22;28293;50.930;3.464;2023-07-20T05:26:58;17.10;86.60
42683;DHT22;28293;50.930;3.464;2023-07-20T05:29:24;17.20;86.50
42683;DHT22;28293;50.930;3.464;2023-07-20T05:31:50;17.30;86.40
42683;DHT22;28293;50.930;3.464;2023-07-20T05:34:16;17.50;86.40
42683;DHT22;28293;50.930;3.464;2023-07-20T05:36:42;17.60;85.70
42683;DHT22;28293;50.930;3.464;2023-07-20T05:39:07;17.70;85.30
42683;DHT22;28293;50.930;3.464;2023-07-20T05:41:33;17.80;85.20
42683;DHT22;28293;50.930;3.464;2023-07-20T05:43:59;18.00;84.70
42683;DHT22;28293;50.930;3.464;2023-07-20T05:46:24;18.20;84.40
42683;DHT22;28293;50.930;3.464;2023-07-20T05:48:50;19.00;83.30
42683;DHT22;28293;50.930;3.464;2023-07-20T05:51:16;20.20;79.00
42683;DHT22;28293;50.930;3.464;2023-07-20T05:53:41;20.50;75.30
42683;DHT22;28293;50.930;3.464;2023-07-20T05:56:07;20.60;74.60
42683;DHT22;28293;50.930;3.464;2023-07-20T05:58:36;20.60;73.70
42683;DHT22;28293;50.930;3.464;2023-07-20T06:01:04;20.60;73.50
42683;DHT22;28293;50.930;3.464;2023-07-20T06:03:32;20.40;74.60
42683;DHT22;28293;50.930;3.464;2023-07-20T06:06:02;20.20;75.50
42683;DHT22;28293;50.930;3.464;2023-07-20T06:08:31;20.00;75.00
42683;DHT22;28293;50.930;3.464;2023-07-20T06:10:57;19.90;75.50
42683;DHT22;28293;50.930;3.464;2023-07-20T06:13:23;19.70;75.60
42683;DHT22;28293;50.930;3.464;2023-07-20T06:15:49;19.50;76.60
42683;DHT22;28293;50.930;3.464;2023-07-20T06:18:15;19.50;76.80
42683;DHT22;28293;50.930;3.464;2023-07-20T06:20:41;19.50;77.40
42683;DHT22;28293;50.930;3.464;2023-07-20T06:23:06;19.50;77.40
42683;DHT22;28293;50.930;3.464;2023-07-20T06:25:32;19.60;77.40
42683;DHT22;28293;50.930;3.464;2023-07-20T06:27:57;19.60;76.20
42683;DHT22;28293;50.930;3.464;2023-07-20T06:30:24;19.80;76.60
42683;DHT22;28293;50.930;3.464;2023-07-20T06:32:50;20.00;75.70
42683;DHT22;28293;50.930;3.464;2023-07-20T06:35:15;20.00;75.00
42683;DHT22;28293;50.930;3.464;2023-07-20T06:37:41;20.10;75.00
42683;DHT22;28293;50.930;3.464;2023-07-20T06:40:07;20.20;74.10
42683;DHT22;28293;50.930;3.464;2023-07-20T06:42:34;20.20;74.40
42683;DHT22;28293;50.930;3.464;2023-07-20T06:45:00;20.40;72.60
42683;DHT22;28293;50.930;3.464;2023-07-20T06:47:26;20.30;71.50
42683;DHT22;28293;50.930;3.464;2023-07-20T06:49:51;20.20;72.50
42683;DHT22;28293;50.930;3.464;2023-07-20T06:52:17;20.20;73.40
42683;DHT22;28293;50.930;3.464;2023-07-20T06:54:43;20.30;73.50
42683;DHT22;28293;50.930;3.464;2023-07-20T06:57:09;20.30;72.80
42683;DHT22;28293;50.930;3.464;2023-07-20T06:59:34;20.50;72.10
42683;DHT22;28293;50.930;3.464;2023-07-20T07:02:00;20.60;70.90
42683;DHT22;28293;50.930;3.464;2023-07-20T07:04:26;20.70;71.30
42683;DHT22;28293;50.930;3.464;2023-07-20T07:06:52;21.00;70.70
42683;DHT22;28293;50.930;3.464;2023-07-20T07:09:18;21.40;70.20
42683;DHT22;28293;50.930;3.464;2023-07-20T07:11:44;21.70;69.00
42683;DHT22;28293;50.930;3.464;2023-07-20T07:14:11;22.10;66.90
42683;DHT22;28293;50.930;3.464;2023-07-20T07:16:37;21.90;66.60
42683;DHT22;28293;50.930;3.464;2023-07-20T07:19:02;21.70;65.40
42683;DHT22;28293;50.930;3.464;2023-07-20T07:21:29;21.70;66.80
42683;DHT22;28293;50.930;3.464;2023-07-20T07:23:55;21.60;67.70
42683;DHT22;28293;50.930;3.464;2023-07-20T07:26:23;21.50;67.20
42683;DHT22;28293;50.930;3.464;2023-07-20T07:28:49;21.10;66.80
42683;DHT22;28293;50.930;3.464;2023-07-20T07:31:15;20.90;68.50
42683;DHT22;28293;50.930;3.464;2023-07-20T07:33:40;20.60;68.80
42683;DHT22;28293;50.930;3.464;2023-07-20T07:36:06;20.60;69.80
42683;DHT22;28293;50.930;3.464;2023-07-20T07:38:32;20.70;70.40
42683;DHT22;28293;50.930;3.464;2023-07-20T07:40:59;20.80;69.60
42683;DHT22;28293;50.930;3.464;2023-07-20T07:43:24;20.90;69.30
42683;DHT22;28293;50.930;3.464;2023-07-20T07:45:53;21.00;69.00
42683;DHT22;28293;50.930;3.464;2023-07-20T07:48:19;21.00;69.50
42683;DHT22;28293;50.930;3.464;2023-07-20T07:50:46;21.00;68.80
42683;DHT22;28293;50.930;3.464;2023-07-20T07:53:12;21.00;68.80
42683;DHT22;28293;50.930;3.464;2023-07-20T07:55:38;20.90;67.50
42683;DHT22;28293;50.930;3.464;2023-07-20T07:58:03;20.90;68.60
42683;DHT22;28293;50.930;3.464;2023-07-20T08:00:29;21.10;68.80
42683;DHT22;28293;50.930;3.464;2023-07-20T08:02:55;21.20;67.60
42683;DHT22;28293;50.930;3.464;2023-07-20T08:05:20;21.40;67.90
42683;DHT22;28293;50.930;3.464;2023-07-20T08:07:46;21.60;66.30
42683;DHT22;28293;50.930;3.464;2023-07-20T08:10:12;21.60;66.10
42683;DHT22;28293;50.930;3.464;2023-07-20T08:12:37;21.70;65.70
42683;DHT22;28293;50.930;3.464;2023-07-20T08:15:03;21.60;65.40
42683;DHT22;28293;50.930;3.464;2023-07-20T08:17:29;21.60;64.70
42683;DHT22;28293;50.930;3.464;2023-07-20T08:19:55;21.60;65.40
42683;DHT22;28293;50.930;3.464;2023-07-20T08:22:21;21.60;65.40
42683;DHT22;28293;50.930;3.464;2023-07-20T08:24:46;21.60;65.90
42683;DHT22;28293;50.930;3.464;2023-07-20T08:27:12;21.70;65.80
42683;DHT22;28293;50.930;3.464;2023-07-20T08:29:38;21.70;65.10
42683;DHT22;28293;50.930;3.464;2023-07-20T08:32:05;21.80;64.20
42683;DHT22;28293;50.930;3.464;2023-07-20T08:34:31;21.80;64.70
42683;DHT22;28293;50.930;3.464;2023-07-20T08:36:57;21.70;65.00
42683;DHT22;28293;50.930;3.464;2023-07-20T08:39:23;21.90;64.70
42683;DHT22;28293;50.930;3.464;2023-07-20T08:41:50;21.90;64.40
42683;DHT22;28293;50.930;3.464;2023-07-20T08:44:17;22.00;64.10
42683;DHT22;28293;50.930;3.464;2023-07-20T08:46:44;22.10;64.20
42683;DHT22;28293;50.930;3.464;2023-07-20T08:49:11;22.10;64.60
42683;DHT22;28293;50.930;3.464;2023-07-20T08:51:37;22.10;64.90
42683;DHT22;28293;50.930;3.464;2023-07-20T08:54:03;21.80;64.30
42683;DHT22;28293;50.930;3.464;2023-07-20T08:56:31;21.60;66.40
42683;DHT22;28293;50.930;3.464;2023-07-20T08:58:58;21.60;65.40
42683;DHT22;28293;50.930;3.464;2023-07-20T09:01:25;21.60;65.70
42683;DHT22;28293;50.930;3.464;2023-07-20T09:03:52;21.90;65.80
42683;DHT22;28293;50.930;3.464;2023-07-20T09:06:18;22.30;65.50
42683;DHT22;28293;50.930;3.464;2023-07-20T09:08:43;22.50;63.10
42683;DHT22;28293;50.930;3.464;2023-07-20T09:11:12;22.80;62.70
42683;DHT22;28293;50.930;3.464;2023-07-20T09:13:39;23.00;62.70
42683;DHT22;28293;50.930;3.464;2023-07-20T09:16:04;23.30;60.90
42683;DHT22;28293;50.930;3.464;2023-07-20T09:18:31;23.50;60.90
42683;DHT22;28293;50.930;3.464;2023-07-20T09:21:06;24.00;59.40
42683;DHT22;28293;50.930;3.464;2023-07-20T09:23:37;24.30;57.80
42683;DHT22;28293;50.930;3.464;2023-07-20T09:26:10;24.60;55.70
42683;DHT22;28293;50.930;3.464;2023-07-20T09:28:43;24.50;55.00
42683;DHT22;28293;50.930;3.464;2023-07-20T09:31:19;24.40;54.90
42683;DHT22;28293;50.930;3.464;2023-07-20T09:33:46;24.30;56.20
42683;DHT22;28293;50.930;3.464;2023-07-20T09:36:12;24.20;56.60
42683;DHT22;28293;50.930;3.464;2023-07-20T09:38:38;24.10;56.40
42683;DHT22;28293;50.930;3.464;2023-07-20T09:41:05;23.90;57.30
42683;DHT22;28293;50.930;3.464;2023-07-20T09:43:34;24.00;56.90
42683;DHT22;28293;50.930;3.464;2023-07-20T09:46:00;24.00;56.90
42683;DHT22;28293;50.930;3.464;2023-07-20T09:48:26;24.00;56.60
42683;DHT22;28293;50.930;3.464;2023-07-20T09:50:53;23.70;56.50
42683;DHT22;28293;50.930;3.464;2023-07-20T09:53:19;23.90;55.40
42683;DHT22;28293;50.930;3.464;2023-07-20T09:55:46;23.80;54.60
42683;DHT22;28293;50.930;3.464;2023-07-20T09:58:13;23.60;55.90
42683;DHT22;28293;50.930;3.464;2023-07-20T10:00:40;23.70;55.10
42683;DHT22;28293;50.930;3.464;2023-07-20T10:03:06;23.50;54.80
42683;DHT22;28293;50.930;3.464;2023-07-20T10:05:37;23.40;56.20
42683;DHT22;28293;50.930;3.464;2023-07-20T10:08:11;23.40;56.80
42683;DHT22;28293;50.930;3.464;2023-07-20T10:10:40;23.50;56.40
42683;DHT22;28293;50.930;3.464;2023-07-20T10:13:07;23.60;55.40
42683;DHT22;28293;50.930;3.464;2023-07-20T10:15:46;23.60;55.80
42683;DHT22;28293;50.930;3.464;2023-07-20T10:18:22;23.80;55.00
42683;DHT22;28293;50.930;3.464;2023-07-20T10:20:51;24.10;53.30
42683;DHT22;28293;50.930;3.464;2023-07-20T10:23:19;24.30;52.80
42683;DHT22;28293;50.930;3.464;2023-07-20T10:25:46;24.30;51.90
42683;DHT22;28293;50.930;3.464;2023-07-20T10:28:12;24.10;51.00
42683;DHT22;28293;50.930;3.464;2023-07-20T10:30:39;24.00;52.30
42683;DHT22;28293;50.930;3.464;2023-07-20T10:33:05;23.80;52.10
42683;DHT22;28293;50.930;3.464;2023-07-20T10:35:57;23.50;52.00
42683;DHT22;28293;50.930;3.464;2023-07-20T10:38:42;23.30;54.00
42683;DHT22;28293;50.930;3.464;2023-07-20T10:43:50;23.00;53.70
42683;DHT22;28293;50.930;3.464;2023-07-20T10:49:07;22.60;54.70
42683;DHT22;28293;50.930;3.464;2023-07-20T10:51:43;22.30;55.90
42683;DHT22;28293;50.930;3.464;2023-07-20T10:56:57;22.00;56.80
42683;DHT22;28293;50.930;3.464;2023-07-20T11:01:50;21.70;57.70
42683;DHT22;28293;50.930;3.464;2023-07-20T11:04:16;21.50;57.90
42683;DHT22;28293;50.930;3.464;2023-07-20T11:06:45;21.50;58.30
42683;DHT22;28293;50.930;3.464;2023-07-20T11:09:14;21.60;59.80
42683;DHT22;28293;50.930;3.464;2023-07-20T11:11:46;21.70;61.90
42683;DHT22;28293;50.930;3.464;2023-07-20T11:14:23;21.70;61.10
42683;DHT22;28293;50.930;3.464;2023-07-20T11:16:49;21.80;60.30
42683;DHT22;28293;50.930;3.464;2023-07-20T11:19:21;21.80;61.40
42683;DHT22;28293;50.930;3.464;2023-07-20T11:21:55;22.00;63.20
42683;DHT22;28293;50.930;3.464;2023-07-20T11:24:21;22.00;66.30
42683;DHT22;28293;50.930;3.464;2023-07-20T11:26:49;22.10;67.70
42683;DHT22;28293;50.930;3.464;2023-07-20T11:29:17;22.00;67.70
42683;DHT22;28293;50.930;3.464;2023-07-20T11:31:44;22.00;68.10
42683;DHT22;28293;50.930;3.464;2023-07-20T11:34:16;22.00;69.30
42683;DHT22;28293;50.930;3.464;2023-07-20T11:36:44;22.00;69.00
42683;DHT22;28293;50.930;3.464;2023-07-20T11:39:11;22.20;69.10
42683;DHT22;28293;50.930;3.464;2023-07-20T11:41:37;22.40;69.40
42683;DHT22;28293;50.930;3.464;2023-07-20T11:44:06;22.60;70.00
42683;DHT22;28293;50.930;3.464;2023-07-20T11:46:33;22.50;68.50
42683;DHT22;28293;50.930;3.464;2023-07-20T11:49:01;22.40;69.00
42683;DHT22;28293;50.930;3.464;2023-07-20T11:51:28;22.40;69.10
42683;DHT22;28293;50.930;3.464;2023-07-20T11:53:55;22.30;68.00
42683;DHT22;28293;50.930;3.464;2023-07-20T11:56:25;22.40;66.70
42683;DHT22;28293;50.930;3.464;2023-07-20T11:58:55;22.50;67.50
42683;DHT22;28293;50.930;3.464;2023-07-20T12:01:23;22.60;67.50
42683;DHT22;28293;50.930;3.464;2023-07-20T12:03:49;22.60;67.70
42683;DHT22;28293;50.930;3.464;2023-07-20T12:06:16;22.90;68.40
42683;DHT22;28293;50.930;3.464;2023-07-20T12:08:42;23.10;67.80
42683;DHT22;28293;50.930;3.464;2023-07-20T12:11:10;23.00;65.10
42683;DHT22;28293;50.930;3.464;2023-07-20T12:13:42;22.90;65.20
42683;DHT22;28293;50.930;3.464;2023-07-20T12:16:15;22.70;65.00
42683;DHT22;28293;50.930;3.464;2023-07-20T12:18:43;23.00;64.60
42683;DHT22;28293;50.930;3.464;2023-07-20T12:21:10;23.10;63.70
42683;DHT22;28293;50.930;3.464;2023-07-20T12:23:39;23.40;64.00
42683;DHT22;28293;50.930;3.464;2023-07-20T12:26:09;23.90;65.50
42683;DHT22;28293;50.930;3.464;2023-07-20T12:28:39;23.90;62.10
42683;DHT22;28293;50.930;3.464;2023-07-20T12:31:09;24.20;60.50
42683;DHT22;28293;50.930;3.464;2023-07-20T12:33:36;24.40;60.60
42683;DHT22;28293;50.930;3.464;2023-07-20T12:36:04;24.50;59.60
42683;DHT22;28293;50.930;3.464;2023-07-20T12:38:30;24.30;60.20
42683;DHT22;28293;50.930;3.464;2023-07-20T12:40:57;24.40;60.10
42683;DHT22;28293;50.930;3.464;2023-07-20T12:43:23;24.50;58.90
42683;DHT22;28293;50.930;3.464;2023-07-20T12:45:49;24.70;57.00
42683;DHT22;28293;50.930;3.464;2023-07-20T12:48:15;25.10;56.40
42683;DHT22;28293;50.930;3.464;2023-07-20T12:50:40;25.10;52.80
42683;DHT22;28293;50.930;3.464;2023-07-20T12:53:06;25.30;55.40
42683;DHT22;28293;50.930;3.464;2023-07-20T12:55:32;25.40;53.30
42683;DHT22;28293;50.930;3.464;2023-07-20T12:57:57;25.30;55.10
42683;DHT22;28293;50.930;3.464;2023-07-20T13:00:23;24.70;55.00
42683;DHT22;28293;50.930;3.464;2023-07-20T13:02:50;24.00;58.00
42683;DHT22;28293;50.930;3.464;2023-07-20T13:05:15;23.80;58.70
42683;DHT22;28293;50.930;3.464;2023-07-20T13:07:42;23.90;59.00
42683;DHT22;28293;50.930;3.464;2023-07-20T13:10:09;23.70;59.20
42683;DHT22;28293;50.930;3.464;2023-07-20T13:12:36;23.10;60.60
42683;DHT22;28293;50.930;3.464;2023-07-20T13:15:06;22.80;62.00
42683;DHT22;28293;50.930;3.464;2023-07-20T13:17:33;22.80;63.40
42683;DHT22;28293;50.930;3.464;2023-07-20T13:19:59;22.80;62.90
42683;DHT22;28293;50.930;3.464;2023-07-20T13:22:24;22.80;62.40
42683;DHT22;28293;50.930;3.464;2023-07-20T13:24:50;22.60;61.80
42683;DHT22;28293;50.930;3.464;2023-07-20T13:27:17;22.50;62.40
42683;DHT22;28293;50.930;3.464;2023-07-20T13:29:43;22.20;64.30
42683;DHT22;28293;50.930;3.464;2023-07-20T13:32:10;21.90;65.10
42683;DHT22;28293;50.930;3.464;2023-07-20T13:34:37;21.80;65.80
42683;DHT22;28293;50.930;3.464;2023-07-20T13:37:03;21.70;65.90
42683;DHT22;28293;50.930;3.464;2023-07-20T13:39:28;21.40;69.10
42683;DHT22;28293;50.930;3.464;2023-07-20T13:41:54;21.00;72.00
42683;DHT22;28293;50.930;3.464;2023-07-20T13:44:20;20.50;73.40
42683;DHT22;28293;50.930;3.464;2023-07-20T13:46:50;19.90;74.70
42683;DHT22;28293;50.930;3.464;2023-07-20T13:49:16;19.40;77.50
42683;DHT22;28293;50.930;3.464;2023-07-20T13:51:42;19.00;80.00
42683;DHT22;28293;50.930;3.464;2023-07-20T13:54:08;18.90;81.10
42683;DHT22;28293;50.930;3.464;2023-07-20T13:56:34;18.90;81.40
42683;DHT22;28293;50.930;3.464;2023-07-20T13:59:00;18.90;81.90
42683;DHT22;28293;50.930;3.464;2023-07-20T14:01:26;18.70;82.60
42683;DHT22;28293;50.930;3.464;2023-07-20T14:03:53;18.70;83.40
42683;DHT22;28293;50.930;3.464;2023-07-20T14:06:19;18.70;84.00
42683;DHT22;28293;50.930;3.464;2023-07-20T14:08:45;18.70;83.90
42683;DHT22;28293;50.930;3.464;2023-07-20T14:11:13;18.70;84.10
42683;DHT22;28293;50.930;3.464;2023-07-20T14:13:39;18.70;84.00
42683;DHT22;28293;50.930;3.464;2023-07-20T14:16:05;18.70;84.40
42683;DHT22;28293;50.930;3.464;2023-07-20T14:18:31;18.60;84.00
42683;DHT22;28293;50.930;3.464;2023-07-20T14:20:57;18.60;84.20
42683;DHT22;28293;50.930;3.464;2023-07-20T14:23:22;18.50;84.20
42683;DHT22;28293;50.930;3.464;2023-07-20T14:25:48;18.60;85.00
42683;DHT22;28293;50.930;3.464;2023-07-20T14:28:14;18.60;84.60
42683;DHT22;28293;50.930;3.464;2023-07-20T14:30:40;18.50;84.40
42683;DHT22;28293;50.930;3.464;2023-07-20T14:33:06;18.40;83.90
42683;DHT22;28293;50.930;3.464;2023-07-20T14:35:33;18.40;84.00
42683;DHT22;28293;50.930;3.464;2023-07-20T14:38:00;18.30;84.00
42683;DHT22;28293;50.930;3.464;2023-07-20T14:40:26;18.40;84.20
42683;DHT22;28293;50.930;3.464;2023-07-20T14:42:52;18.50;84.30
42683;DHT22;28293;50.930;3.464;2023-07-20T14:45:18;18.60;84.30
42683;DHT22;28293;50.930;3.464;2023-07-20T14:47:44;18.50;84.40
42683;DHT22;28293;50.930;3.464;2023-07-20T14:50:11;18.60;85.30
42683;DHT22;28293;50.930;3.464;2023-07-20T14:52:37;18.70;85.10
42683;DHT22;28293;50.930;3.464;2023-07-20T14:55:03;18.90;85.10
42683;DHT22;28293;50.930;3.464;2023-07-20T14:57:29;19.00;84.70
42683;DHT22;28293;50.930;3.464;2023-07-20T14:59:55;19.00;84.40
42683;DHT22;28293;50.930;3.464;2023-07-20T15:02:21;19.10;83.90
42683;DHT22;28293;50.930;3.464;2023-07-20T15:04:50;19.20;83.80
42683;DHT22;28293;50.930;3.464;2023-07-20T15:07:20;19.30;83.40
42683;DHT22;28293;50.930;3.464;2023-07-20T15:09:47;19.40;83.00
42683;DHT22;28293;50.930;3.464;2023-07-20T15:12:14;19.70;82.90
42683;DHT22;28293;50.930;3.464;2023-07-20T15:14:41;19.90;83.20
42683;DHT22;28293;50.930;3.464;2023-07-20T15:17:08;20.50;81.70
42683;DHT22;28293;50.930;3.464;2023-07-20T15:19:34;20.80;78.30
42683;DHT22;28293;50.930;3.464;2023-07-20T15:22:02;20.90;77.50
42683;DHT22;28293;50.930;3.464;2023-07-20T15:24:29;21.00;77.10
42683;DHT22;28293;50.930;3.464;2023-07-20T15:26:54;21.20;74.90
42683;DHT22;28293;50.930;3.464;2023-07-20T15:29:20;21.30;74.60
42683;DHT22;28293;50.930;3.464;2023-07-20T15:31:47;21.40;72.70
42683;DHT22;28293;50.930;3.464;2023-07-20T15:34:13;21.20;72.90
42683;DHT22;28293;50.930;3.464;2023-07-20T15:36:40;21.10;72.60
42683;DHT22;28293;50.930;3.464;2023-07-20T15:39:07;21.20;70.30
42683;DHT22;28293;50.930;3.464;2023-07-20T15:41:33;20.70;74.10
42683;DHT22;28293;50.930;3.464;2023-07-20T15:43:59;20.80;73.80
42683;DHT22;28293;50.930;3.464;2023-07-20T15:49:06;20.50;73.20
42683;DHT22;28293;50.930;3.464;2023-07-20T15:51:33;20.70;73.10
42683;DHT22;28293;50.930;3.464;2023-07-20T15:53:59;20.90;73.70